createdAt,value
2023-03-31T00:00:19.878Z,67.29
2023-03-31T00:01:18.287Z,64.49
2023-03-31T00:02:18.399Z,66.69
2023-03-31T00:03:18.514Z,66.18
2023-03-31T00:04:18.531Z,65.59
2023-03-31T00:05:18.550Z,67.12
2023-03-31T00:06:19.250Z,65.93
2023-03-31T00:07:18.542Z,63.17
2023-03-31T00:08:18.485Z,65.37
2023-03-31T00:09:18.574Z,66.86
2023-03-31T00:10:18.859Z,65.48
2023-03-31T00:11:18.549Z,63.78
2023-03-31T00:12:18.580Z,63.07
2023-03-31T00:13:18.586Z,64.50
2023-03-31T00:14:18.621Z,64.57
2023-03-31T00:15:18.665Z,63.31
2023-03-31T00:16:18.708Z,62.26
2023-03-31T00:17:18.703Z,63.64
2023-03-31T00:18:18.733Z,63.54
2023-03-31T00:19:18.771Z,63.68
2023-03-31T00:20:18.786Z,61.91
2023-03-31T00:21:18.818Z,62.82
2023-03-31T00:22:18.873Z,64.04
2023-03-31T00:23:18.895Z,63.22
2023-03-31T00:24:18.907Z,63.37
2023-03-31T00:25:18.954Z,63.11
2023-03-31T00:26:18.974Z,60.92
2023-03-31T00:27:19.394Z,62.04
2023-03-31T00:28:19.006Z,63.23
2023-03-31T00:29:19.042Z,59.64
2023-03-31T00:30:19.095Z,61.75
2023-03-31T00:31:19.229Z,63.71
2023-03-31T00:32:19.190Z,62.52
2023-03-31T00:33:19.252Z,61.75
2023-03-31T00:34:19.276Z,61.46
2023-03-31T00:35:19.297Z,61.43
2023-03-31T00:36:19.377Z,63.14
2023-03-31T00:37:19.391Z,62.06
2023-03-31T00:38:19.416Z,62.40
2023-03-31T00:39:19.479Z,60.91
2023-03-31T00:40:19.493Z,62.05
2023-03-31T00:41:19.549Z,61.72
2023-03-31T00:42:19.624Z,60.56
2023-03-31T00:43:19.613Z,62.44
2023-03-31T00:44:19.679Z,60.91
2023-03-31T00:45:19.724Z,60.43
2023-03-31T00:46:19.791Z,60.73
2023-03-31T00:47:19.824Z,57.28
2023-03-31T00:48:19.858Z,59.72
2023-03-31T00:49:19.913Z,58.65
2023-03-31T00:50:20.917Z,58.76
2023-03-31T00:51:20.021Z,59.61
2023-03-31T00:52:19.991Z,59.86
2023-03-31T00:53:20.001Z,59.91
2023-03-31T00:54:19.974Z,60.40
2023-03-31T00:55:20.122Z,60.14
2023-03-31T00:56:19.934Z,57.39
2023-03-31T00:57:19.954Z,58.12
2023-03-31T00:58:19.934Z,58.93
2023-03-31T00:59:19.897Z,59.51
2023-03-31T01:00:19.892Z,58.84
2023-03-31T01:01:19.921Z,58.93
2023-03-31T01:02:19.894Z,59.06
2023-03-31T01:03:20.004Z,56.50
2023-03-31T01:04:19.996Z,57.71
2023-03-31T01:05:20.040Z,57.21
2023-03-31T01:06:20.168Z,57.50
2023-03-31T01:07:20.164Z,57.69
2023-03-31T01:08:20.168Z,57.69
2023-03-31T01:09:20.203Z,56.48
2023-03-31T01:10:20.289Z,56.85
2023-03-31T01:11:20.240Z,57.24
2023-03-31T01:12:20.299Z,58.56
2023-03-31T01:13:20.320Z,55.60
2023-03-31T01:14:20.375Z,55.75
2023-03-31T01:15:20.418Z,55.86
2023-03-31T01:16:20.521Z,58.19
2023-03-31T01:17:20.624Z,55.76
2023-03-31T01:18:20.694Z,55.96
2023-03-31T01:19:20.669Z,55.73
2023-03-31T01:20:20.676Z,56.72
2023-03-31T01:21:22.365Z,55.14
2023-03-31T01:22:20.761Z,55.82
2023-03-31T01:23:20.844Z,56.21
2023-03-31T01:24:20.858Z,54.70
2023-03-31T01:25:20.986Z,55.98
2023-03-31T01:26:20.931Z,55.36
2023-03-31T01:27:21.094Z,53.55
2023-03-31T01:28:20.996Z,55.63
2023-03-31T01:29:21.008Z,52.70
2023-03-31T01:30:21.022Z,52.36
2023-03-31T01:31:22.906Z,54.05
2023-03-31T01:32:21.068Z,53.20
2023-03-31T01:33:21.897Z,53.52
2023-03-31T01:34:21.133Z,51.87
2023-03-31T01:35:21.206Z,54.17
2023-03-31T01:36:21.189Z,54.07
2023-03-31T01:37:21.303Z,54.30
2023-03-31T01:38:21.261Z,52.45
2023-03-31T01:39:21.280Z,54.02
2023-03-31T01:40:21.305Z,55.04
2023-03-31T01:41:21.352Z,54.23
2023-03-31T01:42:21.447Z,51.18
2023-03-31T01:43:21.446Z,51.67
2023-03-31T01:44:21.512Z,51.78
2023-03-31T01:45:21.575Z,53.50
2023-03-31T01:46:21.659Z,51.15
2023-03-31T01:47:21.666Z,54.41
2023-03-31T01:48:21.708Z,48.76
2023-03-31T01:49:21.759Z,51.30
2023-03-31T01:50:21.894Z,51.81
2023-03-31T01:51:21.849Z,51.48
2023-03-31T01:52:21.947Z,51.37
2023-03-31T01:53:21.937Z,48.87
2023-03-31T01:54:21.974Z,52.64
2023-03-31T01:55:22.072Z,51.60
2023-03-31T01:56:22.074Z,52.41
2023-03-31T01:57:22.207Z,51.86
2023-03-31T01:58:22.175Z,48.91
2023-03-31T01:59:22.128Z,49.13
2023-03-31T02:00:22.192Z,50.76
2023-03-31T02:01:22.238Z,52.39
2023-03-31T02:02:22.284Z,50.81
2023-03-31T02:03:22.506Z,52.07
2023-03-31T02:04:22.314Z,48.30
2023-03-31T02:05:22.341Z,49.02
2023-03-31T02:06:22.399Z,50.74
2023-03-31T02:07:22.436Z,51.70
2023-03-31T02:08:22.442Z,50.34
2023-03-31T02:09:22.482Z,50.54
2023-03-31T02:10:22.492Z,50.07
2023-03-31T02:11:22.534Z,50.61
2023-03-31T02:12:22.588Z,48.64
2023-03-31T02:13:22.613Z,47.71
2023-03-31T02:14:22.678Z,47.86
2023-03-31T02:15:22.737Z,48.87
2023-03-31T02:16:22.801Z,49.88
2023-03-31T02:17:22.853Z,48.20
2023-03-31T02:18:22.851Z,49.11
2023-03-31T02:19:22.955Z,48.46
2023-03-31T02:20:22.919Z,49.43
2023-03-31T02:21:22.946Z,47.85
2023-03-31T02:22:22.976Z,48.92
2023-03-31T02:23:23.046Z,48.74
2023-03-31T02:24:23.086Z,48.16
2023-03-31T02:25:23.069Z,47.10
2023-03-31T02:26:23.135Z,47.28
2023-03-31T02:27:23.141Z,47.56
2023-03-31T02:28:23.178Z,47.64
2023-03-31T02:29:23.244Z,47.63
2023-03-31T02:30:23.283Z,46.97
2023-03-31T02:31:23.367Z,47.34
2023-03-31T02:32:23.399Z,48.04
2023-03-31T02:33:23.376Z,44.86
2023-03-31T02:34:23.425Z,47.75
2023-03-31T02:35:23.504Z,46.06
2023-03-31T02:36:23.487Z,46.81
2023-03-31T02:37:23.528Z,47.45
2023-03-31T02:38:23.580Z,48.96
2023-03-31T02:39:23.630Z,47.70
2023-03-31T02:40:23.670Z,46.89
2023-03-31T02:41:23.717Z,45.99
2023-03-31T02:42:23.736Z,48.03
2023-03-31T02:43:23.770Z,46.69
2023-03-31T02:44:23.823Z,47.72
2023-03-31T02:45:23.869Z,44.79
2023-03-31T02:46:24.045Z,44.74
2023-03-31T02:47:24.030Z,44.40
2023-03-31T02:48:24.012Z,43.76
2023-03-31T02:49:24.057Z,44.87
2023-03-31T02:50:24.108Z,44.11
2023-03-31T02:51:24.150Z,46.02
2023-03-31T02:52:24.174Z,44.53
2023-03-31T02:53:24.271Z,43.78
2023-03-31T02:54:24.291Z,46.63
2023-03-31T02:55:24.323Z,43.24
2023-03-31T02:56:24.393Z,46.42
2023-03-31T02:57:24.448Z,45.63
2023-03-31T02:58:24.475Z,44.23
2023-03-31T02:59:24.595Z,44.99
2023-03-31T03:00:24.637Z,45.09
2023-03-31T03:01:24.669Z,46.68
2023-03-31T03:02:24.835Z,44.49
2023-03-31T03:03:25.455Z,45.25
2023-03-31T03:04:24.909Z,45.49
2023-03-31T03:05:24.943Z,45.53
2023-03-31T03:06:25.014Z,44.82
2023-03-31T03:07:25.072Z,44.58
2023-03-31T03:08:25.079Z,44.39
2023-03-31T03:09:25.147Z,44.17
2023-03-31T03:10:25.170Z,41.66
2023-03-31T03:11:25.257Z,43.73
2023-03-31T03:12:25.290Z,43.50
2023-03-31T03:13:25.305Z,41.23
2023-03-31T03:14:25.397Z,40.15
2023-03-31T03:15:25.425Z,40.58
2023-03-31T03:16:25.532Z,43.26
2023-03-31T03:17:25.528Z,40.06
2023-03-31T03:18:25.535Z,41.42
2023-03-31T03:19:25.582Z,43.86
2023-03-31T03:20:25.617Z,45.32
2023-03-31T03:21:25.695Z,44.13
2023-03-31T03:22:25.722Z,41.43
2023-03-31T03:23:25.748Z,43.04
2023-03-31T03:24:25.785Z,41.58
2023-03-31T03:25:25.834Z,42.54
2023-03-31T03:26:25.853Z,42.07
2023-03-31T03:27:25.908Z,41.17
2023-03-31T03:28:25.940Z,41.10
2023-03-31T03:29:25.980Z,41.73
2023-03-31T03:30:26.016Z,41.97
2023-03-31T03:31:26.316Z,41.76
2023-03-31T03:32:25.908Z,42.24
2023-03-31T03:33:25.891Z,42.41
2023-03-31T03:34:25.884Z,42.11
2023-03-31T03:35:25.876Z,41.76
2023-03-31T03:36:25.926Z,42.69
2023-03-31T03:37:25.836Z,41.70
2023-03-31T03:38:25.838Z,39.44
2023-03-31T03:39:25.860Z,41.72
2023-03-31T03:40:25.847Z,39.84
2023-03-31T03:41:25.862Z,40.27
2023-03-31T03:42:25.945Z,39.96
2023-03-31T03:43:26.887Z,40.30
2023-03-31T03:44:25.875Z,40.46
2023-03-31T03:45:25.858Z,40.20
2023-03-31T03:46:25.875Z,39.25
2023-03-31T03:47:25.822Z,38.65
2023-03-31T03:48:25.817Z,37.41
2023-03-31T03:49:25.812Z,37.42
2023-03-31T03:50:25.757Z,39.83
2023-03-31T03:51:27.422Z,38.03
2023-03-31T03:52:25.845Z,40.52
2023-03-31T03:53:25.889Z,39.73
2023-03-31T03:54:25.890Z,37.08
2023-03-31T03:55:25.957Z,38.95
2023-03-31T03:56:26.002Z,38.70
2023-03-31T03:57:26.101Z,39.44
2023-03-31T03:58:26.096Z,38.31
2023-03-31T03:59:26.152Z,36.26
2023-03-31T04:00:26.171Z,37.39
2023-03-31T04:01:26.180Z,39.14
2023-03-31T04:02:28.010Z,37.20
2023-03-31T04:03:26.307Z,38.42
2023-03-31T04:04:26.299Z,37.93
2023-03-31T04:05:26.380Z,37.35
2023-03-31T04:06:26.390Z,35.90
2023-03-31T04:07:26.454Z,38.87
2023-03-31T04:08:27.490Z,38.67
2023-03-31T04:09:26.503Z,38.25
2023-03-31T04:10:26.558Z,36.39
2023-03-31T04:11:26.593Z,35.29
2023-03-31T04:12:26.610Z,34.71
2023-03-31T04:13:28.420Z,36.83
2023-03-31T04:14:26.667Z,36.43
2023-03-31T04:15:26.718Z,34.87
2023-03-31T04:16:29.714Z,35.95
2023-03-31T04:17:26.759Z,39.72
2023-03-31T04:18:26.725Z,37.70
2023-03-31T04:19:26.746Z,36.23
2023-03-31T04:20:26.733Z,34.26
2023-03-31T04:21:26.675Z,35.62
2023-03-31T04:22:26.662Z,37.47
2023-03-31T04:23:26.702Z,35.71
2023-03-31T04:24:26.668Z,35.39
2023-03-31T04:25:26.620Z,35.65
2023-03-31T04:26:26.634Z,34.78
2023-03-31T04:27:26.594Z,37.43
2023-03-31T04:28:26.581Z,36.36
2023-03-31T04:29:26.572Z,36.65
2023-03-31T04:30:26.584Z,34.97
2023-03-31T04:31:26.650Z,34.49
2023-03-31T04:32:26.559Z,36.02
2023-03-31T04:33:26.511Z,38.30
2023-03-31T04:34:27.418Z,35.08
2023-03-31T04:35:26.516Z,35.39
2023-03-31T04:36:26.472Z,33.62
2023-03-31T04:37:26.465Z,34.79
2023-03-31T04:38:26.440Z,34.51
2023-03-31T04:39:26.469Z,33.08
2023-03-31T04:40:26.407Z,35.69
2023-03-31T04:41:26.390Z,35.74
2023-03-31T04:42:26.383Z,34.44
2023-03-31T04:43:26.364Z,34.97
2023-03-31T04:44:26.345Z,34.64
2023-03-31T04:45:26.420Z,35.76
2023-03-31T04:46:26.335Z,35.15
2023-03-31T04:47:26.339Z,31.65
2023-03-31T04:48:26.259Z,36.02
2023-03-31T04:49:26.245Z,32.54
2023-03-31T04:50:26.251Z,32.59
2023-03-31T04:51:26.205Z,33.93
2023-03-31T04:52:27.182Z,34.17
2023-03-31T04:53:26.156Z,34.11
2023-03-31T04:54:26.131Z,34.89
2023-03-31T04:55:26.126Z,32.71
2023-03-31T04:56:26.095Z,33.81
2023-03-31T04:57:26.490Z,34.51
2023-03-31T04:58:26.060Z,35.78
2023-03-31T04:59:26.064Z,33.15
2023-03-31T05:00:26.017Z,33.86
2023-03-31T05:01:26.027Z,32.29
2023-03-31T05:02:26.018Z,32.24
2023-03-31T05:03:26.080Z,31.13
2023-03-31T05:04:25.934Z,32.51
2023-03-31T05:05:25.981Z,33.58
2023-03-31T05:06:25.990Z,33.01
2023-03-31T05:07:26.031Z,32.73
2023-03-31T05:08:26.015Z,31.14
2023-03-31T05:09:26.931Z,32.83
2023-03-31T05:10:26.067Z,32.47
2023-03-31T05:11:26.089Z,30.03
2023-03-31T05:12:26.951Z,29.93
2023-03-31T05:13:26.926Z,30.47
2023-03-31T05:14:26.144Z,29.69
2023-03-31T05:15:26.149Z,29.43
2023-03-31T05:16:26.212Z,30.15
2023-03-31T05:17:26.230Z,29.96
2023-03-31T05:18:26.187Z,30.53
2023-03-31T05:19:26.200Z,28.78
2023-03-31T05:20:26.295Z,29.85
2023-03-31T05:21:26.273Z,30.40
2023-03-31T05:22:26.309Z,29.23
2023-03-31T05:23:26.343Z,32.72
2023-03-31T05:24:26.318Z,33.01
2023-03-31T05:25:26.303Z,33.60
2023-03-31T05:26:26.305Z,34.94
2023-03-31T05:27:26.280Z,34.05
2023-03-31T05:28:27.251Z,33.18
2023-03-31T05:29:26.228Z,33.24
2023-03-31T05:30:26.948Z,34.42
2023-03-31T05:31:26.231Z,36.98
2023-03-31T05:32:26.984Z,39.91
2023-03-31T05:33:26.161Z,40.96
2023-03-31T05:34:26.151Z,41.03
2023-03-31T05:35:26.134Z,39.50
2023-03-31T05:36:26.124Z,39.91
2023-03-31T05:37:27.966Z,40.30
2023-03-31T05:38:26.073Z,40.07
2023-03-31T05:39:26.059Z,41.07
2023-03-31T05:40:26.034Z,41.74
2023-03-31T05:41:26.031Z,42.60
2023-03-31T05:42:26.000Z,43.34
2023-03-31T05:43:26.986Z,39.95
2023-03-31T05:44:25.956Z,41.03
2023-03-31T05:45:25.946Z,41.39
2023-03-31T05:46:26.010Z,42.61
2023-03-31T05:47:26.442Z,43.76
2023-03-31T05:48:26.036Z,42.67
2023-03-31T05:49:25.858Z,42.93
2023-03-31T05:50:27.459Z,44.23
2023-03-31T05:51:25.832Z,41.92
2023-03-31T05:52:25.885Z,39.25
2023-03-31T05:53:25.788Z,41.79
2023-03-31T05:54:25.796Z,41.44
2023-03-31T05:55:25.809Z,40.70
2023-03-31T05:56:25.843Z,41.64
2023-03-31T05:57:26.024Z,43.26
2023-03-31T05:58:25.942Z,43.08
2023-03-31T05:59:25.931Z,43.17
2023-03-31T06:00:26.451Z,43.38
2023-03-31T06:01:25.920Z,43.58
2023-03-31T06:02:26.044Z,43.52
2023-03-31T06:03:25.912Z,44.12
2023-03-31T06:04:25.908Z,43.25
2023-03-31T06:05:25.823Z,43.20
2023-03-31T06:06:25.809Z,40.95
2023-03-31T06:07:25.791Z,40.45
2023-03-31T06:08:27.493Z,39.94
2023-03-31T06:09:25.748Z,40.40
2023-03-31T06:10:27.461Z,41.67
2023-03-31T06:11:25.832Z,41.49
2023-03-31T06:12:25.862Z,38.20
2023-03-31T06:13:29.880Z,40.60
2023-03-31T06:14:25.892Z,40.68
2023-03-31T06:15:26.481Z,40.88
2023-03-31T06:16:25.982Z,39.91
2023-03-31T06:17:25.853Z,39.40
2023-03-31T06:18:25.825Z,40.62
2023-03-31T06:19:25.808Z,39.98
2023-03-31T06:20:28.512Z,41.06
2023-03-31T06:21:26.464Z,41.30
2023-03-31T06:22:25.798Z,41.38
2023-03-31T06:23:25.763Z,42.22
2023-03-31T06:24:25.764Z,45.06
2023-03-31T06:25:25.775Z,50.05
2023-03-31T06:26:25.731Z,54.31
2023-03-31T06:27:25.708Z,58.49
2023-03-31T06:28:27.488Z,57.15
2023-03-31T06:29:26.478Z,54.90
2023-03-31T06:30:25.662Z,57.49
2023-03-31T06:31:27.564Z,58.65
2023-03-31T06:32:25.687Z,59.10
2023-03-31T06:33:25.615Z,57.42
2023-03-31T06:34:25.597Z,59.93
2023-03-31T06:35:25.598Z,58.50
2023-03-31T06:36:27.491Z,60.68
2023-03-31T06:37:25.559Z,60.18
2023-03-31T06:38:25.546Z,61.91
2023-03-31T06:39:28.121Z,59.49
2023-03-31T06:40:25.523Z,61.23
2023-03-31T06:41:25.511Z,63.35
2023-03-31T06:42:28.470Z,61.22
2023-03-31T06:43:25.508Z,61.49
2023-03-31T06:44:25.522Z,61.81
2023-03-31T06:45:25.462Z,61.45
2023-03-31T06:46:25.984Z,62.19
2023-03-31T06:47:25.509Z,62.18
2023-03-31T06:48:25.473Z,59.24
2023-03-31T06:49:25.417Z,57.80
2023-03-31T06:50:25.972Z,60.31
2023-03-31T06:51:25.388Z,60.90
2023-03-31T06:52:25.972Z,60.65
2023-03-31T06:53:25.349Z,58.25
2023-03-31T06:54:25.961Z,59.37
2023-03-31T06:55:25.320Z,58.67
2023-03-31T06:56:25.311Z,55.97
2023-03-31T06:57:25.358Z,55.18
2023-03-31T06:58:25.289Z,58.24
2023-03-31T06:59:25.284Z,58.06
2023-03-31T07:00:25.285Z,57.73
2023-03-31T07:01:25.319Z,57.86
2023-03-31T07:02:25.321Z,58.71
2023-03-31T07:03:25.563Z,56.74
2023-03-31T07:04:25.222Z,58.14
2023-03-31T07:05:25.198Z,58.75
2023-03-31T07:06:25.183Z,59.19
2023-03-31T07:07:25.156Z,56.97
2023-03-31T07:08:25.152Z,57.54
2023-03-31T07:09:25.131Z,57.64
2023-03-31T07:10:27.013Z,57.04
2023-03-31T07:11:25.085Z,54.12
2023-03-31T07:12:26.983Z,57.31
2023-03-31T07:13:25.118Z,58.30
2023-03-31T07:14:27.557Z,58.53
2023-03-31T07:15:25.104Z,58.81
2023-03-31T07:16:25.172Z,58.00
2023-03-31T07:17:26.997Z,56.43
2023-03-31T07:18:25.216Z,55.08
2023-03-31T07:19:25.276Z,58.57
2023-03-31T07:20:25.340Z,56.76
2023-03-31T07:21:25.987Z,54.81
2023-03-31T07:22:25.401Z,56.16
2023-03-31T07:23:25.434Z,55.28
2023-03-31T07:24:25.479Z,56.03
2023-03-31T07:25:25.519Z,53.07
2023-03-31T07:26:25.534Z,55.47
2023-03-31T07:27:26.479Z,56.78
2023-03-31T07:28:25.620Z,55.61
2023-03-31T07:29:25.636Z,52.49
2023-03-31T07:30:25.716Z,54.93
2023-03-31T07:31:25.790Z,56.86
2023-03-31T07:32:27.714Z,54.42
2023-03-31T07:33:25.750Z,58.73
2023-03-31T07:34:25.724Z,54.97
2023-03-31T07:35:25.744Z,54.45
2023-03-31T07:36:25.728Z,53.57
2023-03-31T07:37:25.677Z,55.18
2023-03-31T07:38:25.693Z,52.37
2023-03-31T07:39:25.648Z,52.76
2023-03-31T07:40:25.725Z,52.80
2023-03-31T07:41:25.621Z,54.49
2023-03-31T07:42:25.609Z,53.63
2023-03-31T07:43:25.588Z,54.57
2023-03-31T07:44:25.584Z,54.19
2023-03-31T07:45:25.551Z,53.51
2023-03-31T07:46:25.631Z,51.58
2023-03-31T07:47:25.516Z,54.18
2023-03-31T07:48:25.547Z,51.47
2023-03-31T07:49:25.988Z,51.80
2023-03-31T07:50:25.519Z,51.15
2023-03-31T07:51:25.451Z,52.38
2023-03-31T07:52:25.440Z,51.28
2023-03-31T07:53:25.407Z,52.28
2023-03-31T07:54:25.393Z,51.19
2023-03-31T07:55:25.360Z,53.63
2023-03-31T07:56:25.369Z,50.53
2023-03-31T07:57:25.385Z,50.54
2023-03-31T07:58:25.345Z,53.56
2023-03-31T07:59:25.314Z,49.37
2023-03-31T08:00:25.358Z,51.20
2023-03-31T08:01:25.259Z,50.85
2023-03-31T08:02:25.335Z,50.01
2023-03-31T08:03:25.235Z,51.47
2023-03-31T08:04:25.278Z,52.28
2023-03-31T08:05:25.198Z,50.85
2023-03-31T08:06:25.184Z,53.68
2023-03-31T08:07:25.985Z,52.57
2023-03-31T08:08:25.149Z,52.89
2023-03-31T08:09:25.148Z,53.25
2023-03-31T08:10:25.128Z,53.92
2023-03-31T08:11:25.982Z,54.59
2023-03-31T08:12:25.123Z,58.61
2023-03-31T08:13:27.988Z,64.36
2023-03-31T08:14:38.048Z,55.52
2023-03-31T08:15:25.037Z,55.92
2023-03-31T08:16:25.616Z,56.01
2023-03-31T08:17:25.000Z,53.54
2023-03-31T08:18:25.016Z,48.29
2023-03-31T08:19:24.968Z,34.01
2023-03-31T08:20:25.041Z,38.33
2023-03-31T08:21:25.912Z,39.95
2023-03-31T08:22:24.940Z,40.56
2023-03-31T08:23:24.950Z,38.05
2023-03-31T08:24:24.899Z,39.45
2023-03-31T08:25:24.951Z,42.20
2023-03-31T08:26:24.995Z,44.53
2023-03-31T08:27:25.054Z,48.89
2023-03-31T08:28:25.058Z,52.23
2023-03-31T08:29:25.104Z,49.68
2023-03-31T08:30:25.123Z,54.76
2023-03-31T08:31:27.327Z,49.10
2023-03-31T08:32:25.238Z,3.74
2023-03-31T08:33:25.210Z,8.85
2023-03-31T08:34:25.211Z,0.00
2023-03-31T08:35:25.195Z,8.88
2023-03-31T08:37:44.032Z,25.00
2023-03-31T08:38:44.029Z,25.00
2023-03-31T08:39:44.056Z,25.00
2023-03-31T08:40:44.719Z,25.00
2023-03-31T08:41:43.999Z,25.00
2023-03-31T08:42:43.983Z,25.00
2023-03-31T08:43:43.961Z,29.10
2023-03-31T08:44:43.946Z,30.49
2023-03-31T08:45:50.735Z,32.75
2023-03-31T08:46:43.960Z,33.29
2023-03-31T08:47:43.946Z,34.85
2023-03-31T08:48:43.856Z,37.58
2023-03-31T08:49:44.220Z,44.02
2023-03-31T08:50:43.806Z,55.47
2023-03-31T08:51:43.780Z,60.83
2023-03-31T08:52:43.775Z,63.25
2023-03-31T08:53:43.758Z,68.85
2023-03-31T08:54:43.712Z,75.82
2023-03-31T08:55:46.253Z,81.09
2023-03-31T08:56:43.921Z,91.43
2023-03-31T08:57:45.532Z,92.32
2023-03-31T08:58:44.846Z,92.80
2023-03-31T08:59:45.730Z,94.31
2023-03-31T09:00:43.784Z,98.36
2023-03-31T09:01:54.529Z,107.55
2023-03-31T09:02:46.808Z,93.64
2023-03-31T09:03:43.804Z,98.12
2023-03-31T09:04:43.669Z,106.49
2023-03-31T09:05:52.983Z,121.18
2023-03-31T09:06:48.641Z,94.44
2023-03-31T09:07:43.568Z,94.59
2023-03-31T09:08:44.234Z,102.17
2023-03-31T09:09:43.663Z,94.93
2023-03-31T09:10:45.244Z,103.02
2023-03-31T09:11:43.608Z,94.96
2023-03-31T09:12:44.224Z,104.60
2023-03-31T09:13:43.570Z,122.79
2023-03-31T09:14:43.502Z,146.59
2023-03-31T09:15:43.464Z,175.15
2023-03-31T09:16:43.496Z,197.24
2023-03-31T09:17:43.426Z,196.00
2023-03-31T09:18:43.393Z,197.61
2023-03-31T09:19:43.356Z,195.13
2023-03-31T09:20:43.304Z,200.98
2023-03-31T09:21:44.226Z,197.08
2023-03-31T09:22:45.266Z,198.62
2023-03-31T09:23:43.238Z,198.05
2023-03-31T09:24:44.215Z,198.49
2023-03-31T09:25:43.333Z,198.97
2023-03-31T09:26:43.159Z,199.62
2023-03-31T09:27:43.134Z,203.51
2023-03-31T09:28:43.101Z,205.66
2023-03-31T09:29:43.091Z,205.35
2023-03-31T09:30:43.048Z,199.90
2023-03-31T09:31:43.064Z,202.86
2023-03-31T09:32:43.064Z,202.25
2023-03-31T09:33:42.984Z,202.37
2023-03-31T09:34:42.941Z,203.02
2023-03-31T09:35:45.153Z,197.14
2023-03-31T09:36:42.891Z,204.23
2023-03-31T09:37:42.858Z,200.51
2023-03-31T09:38:42.821Z,199.03
2023-03-31T09:39:43.775Z,199.09
2023-03-31T09:40:42.829Z,196.59
2023-03-31T09:41:42.761Z,197.82
2023-03-31T09:42:42.725Z,195.18
2023-03-31T09:43:42.699Z,195.44
2023-03-31T09:44:42.672Z,195.71
2023-03-31T09:45:42.694Z,195.01
2023-03-31T09:46:42.679Z,194.39
2023-03-31T09:47:42.685Z,191.81
2023-03-31T09:48:42.621Z,193.60
2023-03-31T09:49:42.566Z,191.09
2023-03-31T09:50:43.157Z,191.44
2023-03-31T09:51:42.530Z,191.60
2023-03-31T09:52:42.517Z,189.38
2023-03-31T09:53:42.508Z,191.50
2023-03-31T09:54:42.465Z,191.07
2023-03-31T09:55:42.442Z,187.67
2023-03-31T09:56:43.339Z,185.11
2023-03-31T09:57:42.387Z,185.28
2023-03-31T09:58:42.376Z,185.76
2023-03-31T09:59:42.349Z,181.95
2023-03-31T10:00:42.349Z,183.39
2023-03-31T10:01:42.383Z,182.17
2023-03-31T10:02:42.306Z,181.77
2023-03-31T10:03:42.312Z,182.17
2023-03-31T10:04:42.307Z,181.71
2023-03-31T10:05:42.281Z,181.87
2023-03-31T10:06:42.288Z,180.47
2023-03-31T10:07:42.228Z,180.64
2023-03-31T10:08:43.749Z,180.03
2023-03-31T10:09:42.294Z,178.75
2023-03-31T10:10:42.228Z,180.21
2023-03-31T10:11:42.128Z,178.35
2023-03-31T10:12:42.105Z,177.72
2023-03-31T10:13:42.091Z,175.35
2023-03-31T10:14:42.184Z,176.14
2023-03-31T10:15:42.806Z,175.97
2023-03-31T10:16:42.033Z,180.39
2023-03-31T10:17:53.871Z,189.44
2023-03-31T10:18:42.986Z,190.10
2023-03-31T10:19:41.966Z,190.59
2023-03-31T10:20:42.810Z,208.58
2023-03-31T10:21:41.938Z,247.54
2023-03-31T10:22:41.912Z,318.07
2023-03-31T10:23:41.899Z,397.82
2023-03-31T10:24:41.866Z,250.42
2023-03-31T10:25:41.842Z,249.48
2023-03-31T10:26:41.817Z,249.49
2023-03-31T10:27:41.794Z,249.45
2023-03-31T10:28:41.771Z,248.80
2023-03-31T10:29:41.750Z,248.54
2023-03-31T10:30:41.732Z,245.64
2023-03-31T10:31:41.716Z,242.51
2023-03-31T10:32:41.763Z,248.06
2023-03-31T10:33:41.673Z,247.56
2023-03-31T10:34:41.619Z,243.35
2023-03-31T10:35:41.617Z,245.55
2023-03-31T10:36:41.547Z,240.00
2023-03-31T10:37:41.527Z,237.63
2023-03-31T10:38:41.503Z,235.25
2023-03-31T10:39:41.465Z,232.02
2023-03-31T10:40:41.518Z,230.76
2023-03-31T10:41:41.409Z,232.93
2023-03-31T10:42:41.380Z,230.47
2023-03-31T10:43:41.345Z,229.65
2023-03-31T10:44:41.331Z,229.76
2023-03-31T10:45:41.305Z,231.74
2023-03-31T10:46:41.341Z,226.22
2023-03-31T10:47:41.305Z,229.85
2023-03-31T10:48:41.755Z,230.27
2023-03-31T10:49:41.193Z,231.27
2023-03-31T10:50:41.164Z,236.62
2023-03-31T10:51:41.138Z,232.76
2023-03-31T10:52:41.092Z,238.33
2023-03-31T10:53:41.070Z,236.39
2023-03-31T10:54:41.027Z,238.87
2023-03-31T10:55:41.026Z,241.79
2023-03-31T10:56:40.956Z,240.44
2023-03-31T10:57:40.960Z,246.49
2023-03-31T10:58:40.897Z,246.17
2023-03-31T10:59:40.915Z,249.83
2023-03-31T11:00:40.856Z,248.63
2023-03-31T11:01:40.881Z,250.67
2023-03-31T11:02:40.856Z,247.90
2023-03-31T11:03:40.847Z,238.80
2023-03-31T11:04:40.744Z,234.29
2023-03-31T11:05:40.705Z,234.45
2023-03-31T11:06:40.666Z,227.05
2023-03-31T11:07:40.655Z,223.40
2023-03-31T11:08:40.605Z,218.59
2023-03-31T11:09:40.604Z,221.36
2023-03-31T11:10:40.681Z,218.77
2023-03-31T11:11:40.541Z,216.46
2023-03-31T11:12:40.514Z,211.45
2023-03-31T11:13:40.521Z,210.99
2023-03-31T11:14:40.527Z,208.23
2023-03-31T11:15:40.570Z,208.35
2023-03-31T11:16:40.679Z,206.07
2023-03-31T11:17:40.575Z,205.89
2023-03-31T11:18:40.542Z,203.00
2023-03-31T11:19:40.596Z,202.55
2023-03-31T11:20:40.552Z,200.27
2023-03-31T11:21:40.569Z,198.07
2023-03-31T11:22:40.573Z,202.39
2023-03-31T11:23:40.587Z,202.30
2023-03-31T11:24:40.611Z,194.68
2023-03-31T11:25:40.607Z,196.80
2023-03-31T11:26:40.614Z,192.19
2023-03-31T11:27:40.640Z,190.62
2023-03-31T11:28:40.630Z,190.41
2023-03-31T11:29:40.633Z,191.37
2023-03-31T11:30:40.652Z,188.31
2023-03-31T11:31:40.684Z,190.93
2023-03-31T11:32:40.675Z,187.20
2023-03-31T11:33:40.669Z,190.38
2023-03-31T11:34:40.692Z,186.08
2023-03-31T11:35:40.750Z,185.86
2023-03-31T11:36:40.736Z,186.29
2023-03-31T11:37:40.746Z,187.55
2023-03-31T11:38:40.778Z,186.82
2023-03-31T11:39:40.780Z,181.85
2023-03-31T11:40:40.813Z,184.28
2023-03-31T11:41:40.810Z,183.89
2023-03-31T11:42:40.832Z,180.75
2023-03-31T11:43:40.862Z,180.51
2023-03-31T11:44:40.859Z,181.37
2023-03-31T11:45:40.926Z,178.93
2023-03-31T11:46:40.991Z,177.65
2023-03-31T11:47:40.973Z,175.14
2023-03-31T11:48:40.935Z,175.51
2023-03-31T11:49:40.950Z,180.27
2023-03-31T11:50:40.971Z,177.56
2023-03-31T11:51:40.984Z,178.56
2023-03-31T11:52:41.014Z,178.67
2023-03-31T11:53:41.018Z,179.88
2023-03-31T11:54:41.054Z,176.96
2023-03-31T11:55:41.071Z,174.98
2023-03-31T11:56:41.320Z,174.18
2023-03-31T11:57:41.091Z,172.94
2023-03-31T11:58:41.125Z,173.90
2023-03-31T11:59:41.137Z,176.53
2023-03-31T12:00:41.134Z,170.12
2023-03-31T12:01:41.151Z,173.45
2023-03-31T12:02:41.172Z,172.73
2023-03-31T12:03:41.189Z,171.34
2023-03-31T12:04:41.206Z,171.35
2023-03-31T12:05:41.250Z,168.03
2023-03-31T12:06:41.249Z,168.01
2023-03-31T12:07:41.276Z,167.92
2023-03-31T12:08:41.281Z,167.55
2023-03-31T12:09:41.297Z,170.85
2023-03-31T12:10:41.335Z,170.16
2023-03-31T12:11:41.352Z,169.74
2023-03-31T12:12:41.381Z,167.23
2023-03-31T12:13:41.398Z,169.15
2023-03-31T12:14:41.406Z,165.94
2023-03-31T12:15:41.494Z,164.73
2023-03-31T12:16:41.499Z,168.10
2023-03-31T12:17:41.508Z,161.40
2023-03-31T12:18:41.480Z,164.84
2023-03-31T12:19:41.486Z,163.30
2023-03-31T12:20:41.509Z,163.76
2023-03-31T12:21:41.540Z,164.89
2023-03-31T12:22:41.551Z,160.07
2023-03-31T12:23:41.585Z,164.14
2023-03-31T12:24:41.614Z,163.59
2023-03-31T12:25:41.614Z,162.64
2023-03-31T12:26:41.649Z,161.96
2023-03-31T12:27:41.711Z,159.93
2023-03-31T12:28:41.701Z,161.95
2023-03-31T12:29:41.721Z,160.99
2023-03-31T12:30:41.743Z,159.56
2023-03-31T12:31:41.827Z,160.80
2023-03-31T12:32:41.793Z,160.64
2023-03-31T12:33:41.808Z,160.56
2023-03-31T12:34:41.821Z,158.61
2023-03-31T12:35:41.914Z,159.10
2023-03-31T12:36:41.875Z,157.65
2023-03-31T12:37:42.790Z,158.56
2023-03-31T12:38:41.930Z,157.64
2023-03-31T12:39:41.955Z,158.49
2023-03-31T12:40:41.980Z,156.68
2023-03-31T12:41:42.072Z,157.42
2023-03-31T12:42:42.037Z,156.89
2023-03-31T12:43:42.073Z,155.22
2023-03-31T12:44:42.094Z,156.09
2023-03-31T12:45:42.122Z,155.55
2023-03-31T12:46:42.160Z,155.26